Time;durP1;ratioP1;P1;durP2;ratioP2;P2;SDS_P1;SDS_P2;PMS_P1;PMS_P2;Temp;Humidity;BMP_temperature;BMP_pressure;BME280_temperature;BME280_humidity;BME280_pressure;Samples;Min_cycle;Max_cycle;Signal;HPM_P1;HPM_P2
2022/08/26 00:01:07;;;;;;;10.83;9.40;;;22.60;99.90;;;;;;5031686;28;20155;-73
2022/08/26 00:03:34;;;;;;;11.80;9.70;;;22.60;99.90;;;;;;5031779;28;20183;-73
2022/08/26 00:06:00;;;;;;;13.03;10.37;;;22.50;99.90;;;;;;5029495;28;20195;-73
2022/08/26 00:08:25;;;;;;;12.87;11.60;;;22.50;99.90;;;;;;5012186;28;20442;-73
2022/08/26 00:10:51;;;;;;;16.43;13.30;;;22.50;99.90;;;;;;5012195;28;20191;-73
2022/08/26 00:13:17;;;;;;;15.33;13.73;;;22.40;99.90;;;;;;5012012;28;20669;-73
2022/08/26 00:15:43;;;;;;;17.87;15.37;;;22.40;99.90;;;;;;5011502;28;20168;-73
2022/08/26 00:18:09;;;;;;;19.63;16.13;;;22.40;99.90;;;;;;5016398;28;20422;-73
2022/08/26 00:20:34;;;;;;;24.00;19.03;;;22.40;99.90;;;;;;5031757;28;20404;-73
2022/08/26 00:23:01;;;;;;;25.20;19.47;;;22.40;99.90;;;;;;5031845;28;20222;-73
2022/08/26 00:25:27;;;;;;;22.13;19.80;;;22.40;99.90;;;;;;5031451;28;20589;-73
2022/08/26 00:27:52;;;;;;;25.63;21.23;;;22.40;99.90;;;;;;5031637;28;20605;-73
2022/08/26 00:30:21;;;;;;;29.23;23.60;;;22.40;99.90;;;;;;5024298;28;20188;-73
2022/08/26 00:32:47;;;;;;;29.40;23.33;;;22.40;99.90;;;;;;5011977;28;20307;-73
2022/08/26 00:35:14;;;;;;;29.93;21.87;;;22.30;99.90;;;;;;5011495;28;20531;-73
2022/08/26 00:37:40;;;;;;;25.53;21.20;;;22.30;99.90;;;;;;5011778;28;20991;-73
2022/08/26 00:40:11;;;;;;;32.07;23.80;;;22.30;99.90;;;;;;5012061;28;20411;-73
2022/08/26 00:42:37;;;;;;;32.83;26.23;;;22.20;99.90;;;;;;5019055;28;21010;-73
2022/08/26 00:45:03;;;;;;;31.47;25.17;;;22.20;99.90;;;;;;5031338;28;20490;-73
2022/08/26 00:48:08;;;;;;;35.63;25.77;;;22.10;99.90;;;;;;5031637;28;20168;-73
2022/08/26 00:50:40;;;;;;;37.67;28.17;;;22.10;99.90;;;;;;4969992;28;20440;-73
2022/08/26 00:53:20;;;;;;;36.27;26.97;;;22.10;99.90;;;;;;4970345;28;20548;-73
2022/08/26 00:56:01;;;;;;;34.13;27.57;;;22.00;99.90;;;;;;4991526;28;20437;-73
2022/08/26 00:58:30;;;;;;;40.00;30.30;;;22.00;99.90;;;;;;5012033;28;20403;-73
2022/08/26 01:00:55;;;;;;;39.27;29.20;;;22.00;99.90;;;;;;5014475;28;20431;-73
2022/08/26 01:03:24;;;;;;;36.17;26.50;;;22.00;99.90;;;;;;5015171;28;20426;-73
2022/08/26 01:05:55;;;;;;;46.03;31.67;;;21.90;99.90;;;;;;5014807;28;20172;-73
2022/08/26 01:08:22;;;;;;;39.70;30.13;;;21.90;99.90;;;;;;5033369;28;20509;-73
2022/08/26 01:10:48;;;;;;;41.97;32.20;;;21.90;99.90;;;;;;5034812;28;20405;-73
2022/08/26 01:13:14;;;;;;;38.40;31.37;;;21.80;99.90;;;;;;5034642;28;20422;-73
2022/08/26 01:15:43;;;;;;;38.67;30.77;;;21.80;99.90;;;;;;5034524;28;20168;-73
2022/08/26 01:18:10;;;;;;;37.00;28.33;;;21.70;99.90;;;;;;5034096;28;20222;-73
2022/08/26 01:20:58;;;;;;;45.03;30.77;;;21.70;99.90;;;;;;5014774;28;20426;-73
2022/08/26 01:23:28;;;;;;;43.13;29.93;;;21.70;99.90;;;;;;5014776;28;20507;-73
2022/08/26 01:25:59;;;;;;;44.97;31.83;;;21.60;99.90;;;;;;5014623;28;20399;-73
2022/08/26 01:28:29;;;;;;;45.03;32.37;;;21.60;99.90;;;;;;5014732;28;20759;-73
2022/08/26 01:30:56;;;;;;;42.50;31.60;;;21.60;99.90;;;;;;5019103;28;20473;-73
2022/08/26 01:33:28;;;;;;;42.90;33.90;;;21.50;99.90;;;;;;5034227;28;20519;-73
2022/08/26 01:35:54;;;;;;;37.57;28.47;;;21.50;99.90;;;;;;5034094;28;20453;-72
2022/08/26 01:38:19;;;;;;;42.87;32.47;;;21.50;99.90;;;;;;5034229;28;21030;-72
2022/08/26 01:40:45;;;;;;;37.63;29.80;;;21.50;99.90;;;;;;5034271;28;20242;-72
2022/08/26 01:43:17;;;;;;;42.77;31.00;;;21.40;99.90;;;;;;5028418;28;20180;-73
2022/08/26 01:45:44;;;;;;;43.00;29.43;;;21.40;99.90;;;;;;5014199;28;20403;-73
2022/08/26 01:48:18;;;;;;;40.57;29.17;;;21.40;99.90;;;;;;5014477;28;20421;-73
2022/08/26 01:50:44;;;;;;;40.60;30.30;;;21.30;99.90;;;;;;5032628;28;20488;-73
2022/08/26 01:53:12;;;;;;;40.30;29.83;;;21.30;99.90;;;;;;5033907;28;20454;-73
2022/08/26 01:55:41;;;;;;;41.70;29.10;;;21.30;99.90;;;;;;5023095;28;20506;-73
2022/08/26 01:58:16;;;;;;;38.37;28.40;;;21.20;99.90;;;;;;5014118;28;20435;-72
2022/08/26 02:00:42;;;;;;;38.77;26.23;;;21.20;99.90;;;;;;5013917;28;20399;-72
2022/08/26 02:03:17;;;;;;;36.10;26.77;;;21.20;99.90;;;;;;5013900;28;20423;-73
2022/08/26 02:05:55;;;;;;;39.40;28.77;;;21.20;99.90;;;;;;5013625;28;20391;-73
2022/08/26 02:08:26;;;;;;;34.40;25.50;;;21.20;99.90;;;;;;5031711;28;20406;-73
2022/08/26 02:10:54;;;;;;;37.27;27.17;;;21.10;99.90;;;;;;5032465;28;20452;-73
2022/08/26 02:13:20;;;;;;;38.63;27.37;;;21.10;99.90;;;;;;5033598;28;20639;-72
2022/08/26 02:15:46;;;;;;;36.77;26.53;;;21.00;99.90;;;;;;5033132;28;20394;-72
2022/08/26 02:18:12;;;;;;;33.83;25.30;;;21.00;99.90;;;;;;5033449;28;20411;-72
2022/08/26 02:20:37;;;;;;;32.63;24.17;;;21.00;99.90;;;;;;5014785;28;20913;-73
2022/08/26 02:23:04;;;;;;;32.47;24.50;;;21.00;99.90;;;;;;5013479;28;20214;-73
2022/08/26 02:25:50;;;;;;;35.97;26.10;;;21.00;99.90;;;;;;5045139;28;20176;-72
2022/08/26 02:28:17;;;;;;;32.17;26.00;;;20.90;99.90;;;;;;5013582;28;20400;-72
2022/08/26 02:30:43;;;;;;;31.13;23.20;;;20.90;99.90;;;;;;5013857;28;20411;-72
2022/08/26 02:33:09;;;;;;;32.00;25.03;;;20.90;99.90;;;;;;5033025;28;20500;-72
2022/08/26 02:35:36;;;;;;;35.70;25.67;;;20.90;99.90;;;;;;5032779;28;20820;-72
2022/08/26 02:38:04;;;;;;;33.07;22.67;;;20.90;99.90;;;;;;5032998;28;20403;-72
2022/08/26 02:40:34;;;;;;;34.93;25.10;;;20.90;99.90;;;;;;5032870;28;20919;-72
2022/08/26 02:43:00;;;;;;;33.67;25.30;;;20.80;99.90;;;;;;5028853;28;21023;-72
2022/08/26 02:45:27;;;;;;;32.63;23.87;;;20.90;99.90;;;;;;5012891;28;20491;-72
2022/08/26 02:47:54;;;;;;;29.97;23.93;;;20.90;99.90;;;;;;5013152;28;20176;-72
2022/08/26 02:50:21;;;;;;;30.30;24.40;;;20.90;99.90;;;;;;5013063;28;20500;-72
2022/08/26 02:52:47;;;;;;;33.57;23.47;;;20.90;99.90;;;;;;5012927;28;20435;-72
2022/08/26 02:55:13;;;;;;;34.37;25.00;;;20.80;99.90;;;;;;5018145;28;20513;-72
2022/08/26 02:57:39;;;;;;;34.77;23.90;;;20.80;99.90;;;;;;5032359;28;20462;-72
2022/08/26 03:00:07;;;;;;;32.83;25.40;;;20.80;99.90;;;;;;5032638;28;20429;-72
2022/08/26 03:02:33;;;;;;;29.13;23.33;;;20.80;99.90;;;;;;5032568;28;20872;-73
2022/08/26 03:04:58;;;;;;;33.90;24.50;;;20.90;99.90;;;;;;5030957;28;20517;-72
2022/08/26 03:07:24;;;;;;;35.37;23.07;;;20.90;99.90;;;;;;5031901;28;20257;-73
2022/08/26 03:09:49;;;;;;;33.00;25.03;;;20.90;99.90;;;;;;5032554;28;20530;-73
2022/08/26 03:12:15;;;;;;;38.80;25.97;;;20.90;99.90;;;;;;5032448;28;20167;-73
2022/08/26 03:14:41;;;;;;;31.00;23.10;;;21.00;99.90;;;;;;5032140;28;20186;-73
2022/08/26 03:17:06;;;;;;;27.93;21.60;;;21.00;99.90;;;;;;5032335;28;20206;-73
2022/08/26 03:19:32;;;;;;;28.13;22.17;;;21.00;99.90;;;;;;5023772;28;20181;-74
2022/08/26 03:21:57;;;;;;;30.43;22.33;;;21.10;99.90;;;;;;5012517;28;20176;-74
2022/08/26 03:24:24;;;;;;;28.63;22.10;;;21.10;99.90;;;;;;5012290;28;20240;-73
2022/08/26 03:26:50;;;;;;;25.33;21.03;;;21.20;99.90;;;;;;5012605;28;20195;-73
2022/08/26 03:32:00;;;;;;;32.67;23.23;;;21.20;99.90;;;;;;5022243;28;20509;-73
2022/08/26 03:34:26;;;;;;;31.83;21.37;;;21.30;99.90;;;;;;5031839;28;20438;-73
2022/08/26 03:36:52;;;;;;;27.93;19.37;;;21.30;99.90;;;;;;5032071;28;20441;-73
2022/08/26 03:39:18;;;;;;;28.90;20.23;;;21.30;99.90;;;;;;5032195;28;20502;-73
2022/08/26 03:41:44;;;;;;;41.87;24.70;;;21.30;99.90;;;;;;5030888;28;20177;-73
2022/08/26 03:44:10;;;;;;;28.73;19.97;;;21.40;99.90;;;;;;5020989;28;20204;-73
2022/08/26 03:46:37;;;;;;;25.77;19.67;;;21.40;99.90;;;;;;5012322;28;20913;-73
2022/08/26 03:49:04;;;;;;;31.83;23.53;;;21.40;99.90;;;;;;5012343;28;20414;-73
2022/08/26 03:51:31;;;;;;;32.93;23.43;;;21.40;99.90;;;;;;5012151;28;20429;-73
2022/08/26 03:53:58;;;;;;;30.00;20.33;;;21.40;99.90;;;;;;5012167;28;20439;-74
2022/08/26 03:56:23;;;;;;;36.20;21.90;;;21.40;99.90;;;;;;5021729;28;20970;-74
2022/08/26 03:58:49;;;;;;;32.20;21.90;;;21.40;99.90;;;;;;5031929;28;20406;-73
2022/08/26 04:01:15;;;;;;;30.67;23.87;;;21.50;99.90;;;;;;5031878;28;20556;-73
2022/08/26 04:03:59;;;;;;;27.90;20.40;;;21.50;99.90;;;;;;5031795;28;20191;-73
2022/08/26 04:06:33;;;;;;;25.13;20.90;;;21.40;99.90;;;;;;5031532;28;20525;-73
2022/08/26 04:09:01;;;;;;;31.70;20.30;;;21.50;99.90;;;;;;5015177;28;20934;-73
2022/08/26 04:11:30;;;;;;;37.67;23.50;;;21.50;99.90;;;;;;5011933;28;20412;-73
2022/08/26 04:14:00;;;;;;;27.60;20.70;;;21.50;99.90;;;;;;5011818;28;20973;-73
2022/08/26 04:16:27;;;;;;;22.53;20.30;;;21.50;99.90;;;;;;5011632;28;20454;-73
2022/08/26 04:18:53;;;;;;;24.50;16.23;;;21.50;99.90;;;;;;5011988;28;20411;-73
2022/08/26 04:21:18;;;;;;;24.17;16.70;;;21.60;99.90;;;;;;5028013;28;20437;-73
2022/08/26 04:23:44;;;;;;;21.03;17.63;;;21.60;99.90;;;;;;5031746;28;20196;-73
2022/08/26 04:26:10;;;;;;;24.03;17.67;;;21.60;99.90;;;;;;5030138;28;20310;-73
2022/08/26 04:28:35;;;;;;;23.13;16.70;;;21.60;99.90;;;;;;5031752;28;20167;-73
2022/08/26 04:31:01;;;;;;;21.10;16.80;;;21.70;99.90;;;;;;5031673;28;20718;-72
2022/08/26 04:33:27;;;;;;;18.07;14.33;;;21.70;99.90;;;;;;5015092;28;20607;-73
2022/08/26 04:36:04;;;;;;;26.73;17.13;;;21.70;99.90;;;;;;5015220;28;20855;-73
2022/08/26 04:38:30;;;;;;;19.70;14.80;;;21.70;99.90;;;;;;5015652;28;20806;-73
2022/08/26 04:40:56;;;;;;;18.50;14.90;;;21.70;99.90;;;;;;5015939;28;20411;-74
2022/08/26 04:43:29;;;;;;;22.80;15.63;;;21.70;99.90;;;;;;5048366;28;20443;-74
2022/08/26 04:45:56;;;;;;;17.63;13.97;;;21.70;99.90;;;;;;5050353;28;20414;-73
2022/08/26 04:48:21;;;;;;;20.63;16.10;;;21.80;99.90;;;;;;5035208;28;20865;-73
2022/08/26 04:50:47;;;;;;;19.77;13.87;;;21.80;99.90;;;;;;5034943;28;20508;-73
2022/08/26 04:53:12;;;;;;;15.20;13.60;;;21.80;99.90;;;;;;5035360;28;20198;-74
2022/08/26 04:55:38;;;;;;;17.80;12.60;;;21.80;99.90;;;;;;5031075;28;20176;-73
2022/08/26 04:58:07;;;;;;;18.43;14.10;;;21.80;99.90;;;;;;5015180;28;20210;-73
2022/08/26 05:00:33;;;;;;;19.23;13.57;;;21.80;99.90;;;;;;5015199;28;20256;-73
2022/08/26 05:02:59;;;;;;;18.33;13.83;;;21.90;99.90;;;;;;5015004;28;20940;-73
2022/08/26 05:05:25;;;;;;;15.63;13.70;;;21.90;99.90;;;;;;5014713;28;20461;-73
2022/08/26 05:07:50;;;;;;;16.00;11.60;;;22.00;99.90;;;;;;5021160;28;20939;-73
2022/08/26 05:10:16;;;;;;;14.13;12.00;;;22.00;99.90;;;;;;5034743;28;20179;-73
2022/08/26 05:12:42;;;;;;;15.10;12.63;;;21.90;99.90;;;;;;5034608;28;20333;-73
2022/08/26 05:15:09;;;;;;;21.30;12.70;;;21.90;99.90;;;;;;5034371;28;20403;-73
2022/08/26 05:17:34;;;;;;;12.07;10.40;;;22.00;99.90;;;;;;5034448;28;20298;-73
2022/08/26 05:20:00;;;;;;;15.73;11.00;;;22.00;99.90;;;;;;5028088;28;20459;-73
2022/08/26 05:22:26;;;;;;;12.03;10.23;;;22.00;99.90;;;;;;5014658;28;20180;-73
2022/08/26 05:24:51;;;;;;;17.60;11.13;;;22.00;99.90;;;;;;5014500;28;20570;-73
2022/08/26 05:27:17;;;;;;;22.13;12.83;;;22.00;99.90;;;;;;5014727;28;20588;-73
2022/08/26 05:29:42;;;;;;;14.93;10.70;;;22.00;99.90;;;;;;5014685;28;20203;-73
2022/08/26 05:32:08;;;;;;;11.57;9.13;;;22.00;99.90;;;;;;5023388;28;20183;-73
2022/08/26 05:34:33;;;;;;;13.07;10.03;;;22.00;99.90;;;;;;5033928;28;20229;-73
2022/08/26 05:36:59;;;;;;;11.50;8.77;;;22.10;99.90;;;;;;5049471;28;20207;-72
2022/08/26 05:39:24;;;;;;;9.67;8.10;;;22.10;99.90;;;;;;5034298;28;20206;-71
2022/08/26 05:41:50;;;;;;;10.60;8.23;;;22.10;99.90;;;;;;5034186;28;20167;-72
2022/08/26 05:44:17;;;;;;;9.43;8.50;;;22.20;99.90;;;;;;5020689;28;20230;-73
2022/08/26 05:46:44;;;;;;;10.70;8.30;;;22.20;99.90;;;;;;5014219;28;20172;-73
2022/08/26 05:49:11;;;;;;;8.60;7.37;;;22.20;99.90;;;;;;5014176;28;20422;-72
2022/08/26 05:51:37;;;;;;;9.70;8.57;;;22.20;99.90;;;;;;5014619;28;20431;-72
2022/08/26 05:54:05;;;;;;;9.43;7.23;;;22.20;99.90;;;;;;5033870;28;20445;-72
2022/08/26 05:56:31;;;;;;;12.63;8.00;;;22.20;99.90;;;;;;5033567;28;20536;-72
2022/08/26 05:58:57;;;;;;;8.47;7.10;;;22.30;99.90;;;;;;5033826;28;21027;-72
2022/08/26 06:01:26;;;;;;;11.40;9.17;;;22.30;99.90;;;;;;5033757;28;20195;-72
2022/08/26 06:03:56;;;;;;;17.37;7.83;;;22.30;99.90;;;;;;5014579;28;20202;-73
2022/08/26 06:06:25;;;;;;;16.00;7.80;;;22.40;99.90;;;;;;5013799;28;20415;-73
2022/08/26 06:08:52;;;;;;;9.50;7.83;;;22.40;99.90;;;;;;5014080;28;20469;-73
2022/08/26 06:11:20;;;;;;;8.53;6.83;;;22.50;99.90;;;;;;5024762;28;20820;-72
2022/08/26 06:13:46;;;;;;;6.70;6.00;;;22.50;99.90;;;;;;5033102;28;20453;-73
2022/08/26 06:16:20;;;;;;;7.27;6.37;;;22.60;99.90;;;;;;5033176;28;20450;-74
2022/08/26 06:18:46;;;;;;;11.27;7.23;;;22.60;99.90;;;;;;5048950;28;20539;-74
2022/08/26 06:21:17;;;;;;;9.93;8.37;;;22.70;99.90;;;;;;5022944;28;20425;-74
2022/08/26 06:26:29;;;;;;;8.87;7.90;;;22.70;99.90;;;;;;5013348;28;20495;-73
2022/08/26 06:28:54;;;;;;;8.63;6.10;;;22.70;99.90;;;;;;5013477;28;20407;-73
2022/08/26 06:31:21;;;;;;;8.60;6.20;;;22.80;99.90;;;;;;5013607;28;20422;-73
2022/08/26 06:33:47;;;;;;;9.80;6.90;;;22.80;99.90;;;;;;5030687;28;20700;-73
2022/08/26 06:36:22;;;;;;;9.27;6.27;;;22.80;99.90;;;;;;5032783;28;20460;-73
2022/08/26 06:38:48;;;;;;;9.33;7.47;;;22.90;99.90;;;;;;5031757;28;20791;-72
2022/08/26 06:41:15;;;;;;;8.80;7.80;;;23.00;99.90;;;;;;5033039;28;20417;-73
2022/08/26 06:43:40;;;;;;;8.80;7.30;;;23.00;99.90;;;;;;5033056;28;20418;-73
2022/08/26 06:46:11;;;;;;;8.70;7.80;;;23.00;99.90;;;;;;5013207;28;20493;-73
2022/08/26 06:48:37;;;;;;;7.73;5.93;;;23.10;99.90;;;;;;5013447;28;20187;-73
2022/08/26 06:51:09;;;;;;;11.27;7.00;;;23.10;99.90;;;;;;5013112;28;20477;-74
2022/08/26 06:53:36;;;;;;;11.30;6.80;;;23.10;99.90;;;;;;5012930;28;20431;-72
2022/08/26 06:56:05;;;;;;;6.77;6.07;;;23.10;99.90;;;;;;5016806;28;20781;-73
2022/08/26 06:58:31;;;;;;;8.60;7.70;;;23.20;99.90;;;;;;5032594;28;20424;-73
2022/08/26 07:00:57;;;;;;;8.37;6.40;;;23.20;99.90;;;;;;5032262;28;20410;-73
2022/08/26 07:03:22;;;;;;;9.83;7.63;;;23.30;99.90;;;;;;5032625;28;20410;-73
2022/08/26 07:05:48;;;;;;;13.63;7.53;;;23.30;99.90;;;;;;5032323;28;20164;-73
2022/08/26 07:08:15;;;;;;;9.00;6.57;;;23.30;99.90;;;;;;5026255;28;20207;-73
2022/08/26 07:10:41;;;;;;;7.27;6.00;;;23.40;99.90;;;;;;5027906;28;20168;-73
2022/08/26 07:13:07;;;;;;;7.07;5.30;;;23.40;99.90;;;;;;5012727;28;20474;-73
2022/08/26 07:15:34;;;;;;;10.17;6.50;;;23.40;99.90;;;;;;5012398;28;20404;-73
2022/08/26 07:18:00;;;;;;;11.30;6.07;;;23.40;99.90;;;;;;5012647;28;20243;-73
2022/08/26 07:20:26;;;;;;;7.67;5.70;;;23.40;99.90;;;;;;5018255;28;20422;-73
2022/08/26 07:22:51;;;;;;;5.80;4.27;;;23.40;99.90;;;;;;5032304;28;20418;-73
2022/08/26 07:25:17;;;;;;;7.60;5.57;;;23.40;99.90;;;;;;5032117;28;20246;-72
2022/08/26 07:27:43;;;;;;;7.73;5.13;;;23.30;99.90;;;;;;5032269;28;20172;-74
2022/08/26 07:30:09;;;;;;;7.10;4.73;;;23.30;99.90;;;;;;5032055;28;20200;-74
2022/08/26 07:32:36;;;;;;;5.53;5.03;;;23.30;99.90;;;;;;5023740;28;20562;-73
2022/08/26 07:35:02;;;;;;;6.30;5.40;;;23.20;99.90;;;;;;5010816;28;20411;-74
2022/08/26 07:37:28;;;;;;;5.73;4.97;;;23.20;99.90;;;;;;5012817;28;20478;-71
2022/08/26 07:39:53;;;;;;;6.30;5.70;;;23.10;99.90;;;;;;5012420;28;20566;-71
2022/08/26 07:42:19;;;;;;;5.73;4.80;;;23.10;99.90;;;;;;5012358;28;20195;-71
2022/08/26 07:44:45;;;;;;;5.17;4.30;;;23.00;99.90;;;;;;5022127;28;20534;-72
2022/08/26 07:47:12;;;;;;;5.03;4.50;;;23.00;99.90;;;;;;5031671;28;20433;-72
2022/08/26 07:49:38;;;;;;;5.70;4.87;;;23.00;99.90;;;;;;5031967;28;20172;-72
2022/08/26 07:52:04;;;;;;;7.67;4.90;;;23.00;99.90;;;;;;5030333;28;20441;-70
2022/08/26 07:54:30;;;;;;;5.20;4.70;;;23.00;99.90;;;;;;5031662;28;20170;-71
2022/08/26 07:56:56;;;;;;;6.33;5.73;;;23.00;99.90;;;;;;5018520;28;20537;-71
2022/08/26 07:59:22;;;;;;;6.53;5.40;;;23.10;99.90;;;;;;5012127;28;20511;-71
2022/08/26 08:01:47;;;;;;;9.07;6.50;;;23.10;99.90;;;;;;5012288;28;20168;-70
2022/08/26 08:04:14;;;;;;;23.33;8.70;;;23.10;99.90;;;;;;5011982;28;20474;-71
2022/08/26 08:06:40;;;;;;;8.10;7.30;;;23.10;99.90;;;;;;5012581;28;20168;-71
2022/08/26 08:09:05;;;;;;;7.47;5.87;;;23.10;99.90;;;;;;5034475;28;20418;-71
2022/08/26 08:11:32;;;;;;;8.23;6.57;;;23.10;99.90;;;;;;5034609;28;20172;-71
2022/08/26 08:13:59;;;;;;;11.03;6.40;;;23.10;99.90;;;;;;5035495;28;20184;-72
2022/08/26 08:16:25;;;;;;;9.27;7.30;;;23.10;99.90;;;;;;5035448;28;20450;-72
2022/08/26 08:18:51;;;;;;;8.00;5.57;;;23.20;99.90;;;;;;5032076;28;20426;-71
2022/08/26 08:21:16;;;;;;;6.67;5.97;;;23.20;99.90;;;;;;5017716;28;20914;-70
2022/08/26 08:23:42;;;;;;;7.10;5.77;;;23.20;99.90;;;;;;5035518;28;20590;-71
2022/08/26 08:26:09;;;;;;;8.17;5.50;;;23.20;99.90;;;;;;5035424;28;20233;-71
2022/08/26 08:28:36;;;;;;;6.77;5.90;;;23.20;99.90;;;;;;5035560;28;20167;-71
2022/08/26 08:31:03;;;;;;;7.53;6.47;;;23.20;99.90;;;;;;5035453;28;20453;-72
2022/08/26 08:33:30;;;;;;;7.07;6.43;;;23.20;99.90;;;;;;5025458;28;20452;-71
2022/08/26 08:35:57;;;;;;;9.30;8.37;;;23.20;99.90;;;;;;5030620;28;20418;-71
2022/08/26 08:38:22;;;;;;;6.93;6.27;;;23.10;99.90;;;;;;5015649;28;20417;-71
2022/08/26 08:40:48;;;;;;;7.00;6.00;;;23.20;99.90;;;;;;5015664;28;20403;-71
2022/08/26 08:43:25;;;;;;;7.43;6.10;;;23.20;99.90;;;;;;5015555;28;20180;-71
2022/08/26 08:45:56;;;;;;;7.33;6.20;;;23.20;99.90;;;;;;5014078;28;20182;-72
2022/08/26 08:48:29;;;;;;;5.60;5.10;;;23.20;99.90;;;;;;5032359;28;20422;-72
2022/08/26 08:51:20;;;;;;;6.50;5.03;;;23.30;99.90;;;;;;5034817;28;20428;-72
2022/08/26 08:53:48;;;;;;;7.97;6.97;;;23.30;99.90;;;;;;5034995;28;20433;-72
2022/08/26 08:56:22;;;;;;;7.00;5.67;;;23.30;99.90;;;;;;5034730;28;20438;-71
2022/08/26 08:59:07;;;;;;;7.40;6.60;;;23.30;99.90;;;;;;5034906;28;20410;-71
2022/08/26 09:01:32;;;;;;;7.50;6.70;;;23.30;99.90;;;;;;5022808;28;20807;-72
2022/08/26 09:04:39;;;;;;;7.03;6.33;;;23.30;99.90;;;;;;5015021;28;20427;-72
2022/08/26 09:07:12;;;;;;;6.17;5.33;;;23.30;99.90;;;;;;5014784;28;20164;-71
2022/08/26 09:09:42;;;;;;;8.60;6.10;;;23.30;99.90;;;;;;5030278;28;20928;-71
2022/08/26 09:12:20;;;;;;;6.47;5.80;;;23.30;99.90;;;;;;5015316;28;20888;-71
2022/08/26 09:14:48;;;;;;;5.27;4.77;;;23.40;99.90;;;;;;5022730;28;20628;-71
2022/08/26 09:17:39;;;;;;;7.57;6.80;;;23.40;99.90;;;;;;5034553;28;20495;-71
2022/08/26 09:20:13;;;;;;;8.20;5.83;;;23.40;99.90;;;;;;5033964;28;20421;-71
2022/08/26 09:22:39;;;;;;;6.67;5.13;;;23.40;99.90;;;;;;5034472;28;20437;-72
2022/08/26 09:25:09;;;;;;;7.43;5.90;;;23.40;99.90;;;;;;5034251;28;20447;-72
2022/08/26 09:27:49;;;;;;;6.97;5.80;;;23.40;99.90;;;;;;5031705;28;20942;-72
2022/08/26 09:30:35;;;;;;;7.20;5.43;;;23.30;99.90;;;;;;5014317;28;20427;-70
2022/08/26 09:33:05;;;;;;;7.13;4.70;;;23.40;99.90;;;;;;5014289;28;20439;-72
2022/08/26 09:35:34;;;;;;;7.70;5.23;;;23.40;99.90;;;;;;5014117;28;20490;-72
2022/08/26 09:38:00;;;;;;;7.10;4.90;;;23.50;99.90;;;;;;5013076;28;20451;-71
2022/08/26 09:40:35;;;;;;;6.93;6.00;;;23.60;99.90;;;;;;5014427;28;20798;-71
2022/08/26 09:43:18;;;;;;;6.63;4.97;;;23.70;99.90;;;;;;5014063;28;20187;-71
2022/08/26 09:45:47;;;;;;;4.90;4.40;;;23.80;99.90;;;;;;5014160;28;20755;-71
2022/08/26 09:48:33;;;;;;;5.30;4.80;;;23.90;99.90;;;;;;5014290;28;20542;-71
2022/08/26 09:51:02;;;;;;;6.90;5.40;;;24.00;99.90;;;;;;5014273;28;20423;-71
2022/08/26 09:53:32;;;;;;;5.50;5.00;;;24.10;99.90;;;;;;5014084;28;20439;-71
2022/08/26 09:56:26;;;;;;;9.67;5.60;;;24.10;99.90;;;;;;5013548;28;20469;-71
2022/08/26 09:58:52;;;;;;;6.27;4.73;;;24.20;99.90;;;;;;5014025;28;20407;-71
2022/08/26 10:01:42;;;;;;;8.60;6.53;;;24.10;99.90;;;;;;5014107;28;20776;-71
2022/08/26 10:04:21;;;;;;;10.67;5.93;;;24.20;99.90;;;;;;5014039;28;20194;-72
2022/08/26 10:07:00;;;;;;;5.83;4.80;;;24.10;99.90;;;;;;5014014;28;20422;-71
2022/08/26 10:09:28;;;;;;;5.60;4.17;;;24.10;99.90;;;;;;5013562;28;20955;-72
2022/08/26 10:12:14;;;;;;;5.90;4.00;;;24.10;99.90;;;;;;5013828;28;20820;-72
2022/08/26 10:14:47;;;;;;;5.30;4.27;;;24.20;99.90;;;;;;5013576;28;20414;-72
2022/08/26 10:17:21;;;;;;;5.40;3.80;;;24.30;99.90;;;;;;5013735;28;20494;-72
2022/08/26 10:20:22;;;;;;;4.10;3.80;;;24.30;99.90;;;;;;5013979;28;20964;-72
2022/08/26 10:23:11;;;;;;;3.07;2.87;;;24.40;99.90;;;;;;5013282;28;20427;-71
2022/08/26 10:26:04;;;;;;;4.80;4.40;;;24.50;99.90;;;;;;5013403;28;20453;-71
2022/08/26 10:28:55;;;;;;;4.20;3.50;;;24.60;99.90;;;;;;5013628;28;20490;-72
2022/08/26 10:31:51;;;;;;;7.17;3.50;;;24.70;99.90;;;;;;5012617;28;20482;-72
2022/08/26 10:34:18;;;;;;;3.93;3.47;;;24.70;99.90;;;;;;5013115;28;20446;-72
2022/08/26 10:37:12;;;;;;;4.13;3.73;;;24.70;99.90;;;;;;5013187;28;20471;-72
2022/08/26 10:39:44;;;;;;;6.83;4.03;;;24.80;99.90;;;;;;5012109;28;20427;-72
2022/08/26 10:42:34;;;;;;;3.80;3.37;;;24.80;99.90;;;;;;5028408;28;20427;-72
2022/08/26 10:45:06;;;;;;;5.50;3.27;;;24.70;99.90;;;;;;5013050;28;20763;-72
2022/08/26 10:47:39;;;;;;;3.00;2.63;;;24.70;99.90;;;;;;5013159;28;20407;-71
2022/08/26 10:50:05;;;;;;;4.90;3.77;;;24.70;99.90;;;;;;5013148;28;20558;-72
2022/08/26 10:52:45;;;;;;;4.60;3.33;;;24.70;99.90;;;;;;5068621;28;20589;-71
2022/08/26 10:55:21;;;;;;;3.83;2.90;;;24.80;99.90;;;;;;5069039;28;21060;-71
2022/08/26 10:57:54;;;;;;;7.10;3.47;;;24.90;99.90;;;;;;5069341;28;20403;-71
2022/08/26 11:03:50;;;;;;;5.77;3.23;;;25.00;99.90;;;;;;5069110;28;20427;-71
2022/08/26 11:06:20;;;;;;;4.50;2.67;;;25.10;99.90;;;;;;5050102;28;20491;-72
2022/08/26 11:08:48;;;;;;;2.93;2.73;;;25.00;99.90;;;;;;5049102;28;20413;-71
2022/08/26 11:11:35;;;;;;;2.87;2.67;;;25.10;99.90;;;;;;5048947;28;20475;-70
2022/08/26 11:14:04;;;;;;;2.87;2.43;;;25.10;99.90;;;;;;5048952;28;20421;-70
2022/08/26 11:16:35;;;;;;;3.50;2.73;;;25.20;99.90;;;;;;5048805;28;20961;-72
2022/08/26 11:19:01;;;;;;;3.47;3.17;;;25.30;99.90;;;;;;5059261;28;20501;-71
2022/08/26 11:22:01;;;;;;;8.37;2.73;;;25.40;99.90;;;;;;5068888;28;20448;-72
2022/08/26 11:24:40;;;;;;;5.17;2.57;;;25.50;99.90;;;;;;5068443;28;20174;-71
2022/08/26 11:27:30;;;;;;;5.97;3.10;;;25.50;99.90;;;;;;5068741;28;20409;-71
2022/08/26 11:30:19;;;;;;;4.17;2.73;;;25.40;99.90;;;;;;5068529;28;20439;-71
2022/08/26 11:32:57;;;;;;;3.43;3.13;;;25.40;99.90;;;;;;5057288;28;20844;-71
2022/08/26 11:35:23;;;;;;;3.40;3.10;;;25.20;99.90;;;;;;5048434;28;20485;-70
2022/08/26 11:38:00;;;;;;;3.23;2.30;;;25.20;99.90;;;;;;5048613;28;20485;-71
2022/08/26 11:40:27;;;;;;;3.70;2.60;;;25.20;99.90;;;;;;5048577;28;20174;-70
2022/08/26 11:42:59;;;;;;;3.13;2.90;;;25.30;99.90;;;;;;5048410;28;20808;-71
2022/08/26 11:45:47;;;;;;;3.10;2.70;;;25.30;99.90;;;;;;5048255;28;20453;-72
2022/08/26 11:48:32;;;;;;;2.60;2.40;;;25.40;99.90;;;;;;5068257;28;20403;-69
2022/08/26 11:51:05;;;;;;;3.63;3.30;;;25.40;99.90;;;;;;5068067;28;20505;-72
2022/08/26 11:53:34;;;;;;;5.47;3.37;;;25.50;99.90;;;;;;5068010;28;20804;-71
2022/08/26 11:56:04;;;;;;;2.77;2.33;;;25.50;99.90;;;;;;5067738;28;20439;-71
2022/08/26 11:58:30;;;;;;;2.70;2.17;;;25.60;99.90;;;;;;5068110;28;20412;-71
2022/08/26 12:01:05;;;;;;;3.60;2.40;;;25.60;99.90;;;;;;5050815;28;20444;-71
2022/08/26 12:03:39;;;;;;;2.50;2.30;;;25.70;99.90;;;;;;5037508;28;20433;-71
2022/08/26 12:06:15;;;;;;;2.07;1.90;;;25.70;99.90;;;;;;5034573;28;20393;-71
2022/08/26 12:08:43;;;;;;;6.67;2.40;;;25.60;99.90;;;;;;5034727;28;20493;-71
2022/08/26 12:11:44;;;;;;;5.00;2.13;;;25.70;99.90;;;;;;5034612;28;20441;-71
2022/08/26 12:14:25;;;;;;;5.20;2.70;;;25.80;99.90;;;;;;5042839;28;20445;-71
2022/08/26 12:16:52;;;;;;;2.70;2.43;;;25.90;99.90;;;;;;5054581;28;20921;-71
2022/08/26 12:19:32;;;;;;;2.50;2.30;;;25.90;99.90;;;;;;5054498;28;20467;-71
2022/08/26 12:22:22;;;;;;;4.70;2.90;;;25.90;99.90;;;;;;5054439;28;20413;-72
2022/08/26 12:24:52;;;;;;;5.63;3.13;;;25.90;99.90;;;;;;5053745;28;20578;-71
2022/08/26 12:27:24;;;;;;;5.63;3.43;;;25.70;99.90;;;;;;5051466;28;20793;-71
2022/08/26 12:30:12;;;;;;;3.33;2.43;;;25.50;99.90;;;;;;5034349;28;20418;-71
2022/08/26 12:32:41;;;;;;;3.70;2.90;;;25.50;99.90;;;;;;5034442;28;21000;-72
2022/08/26 12:35:10;;;;;;;3.83;2.20;;;25.30;99.90;;;;;;5034020;28;20812;-71
2022/08/26 12:37:39;;;;;;;3.50;2.57;;;25.20;99.90;;;;;;5034254;28;20893;-71
2022/08/26 12:40:35;;;;;;;4.03;2.50;;;25.10;99.90;;;;;;5034192;28;20402;-72
2022/08/26 12:43:03;;;;;;;3.83;2.43;;;25.00;99.90;;;;;;5049459;28;20798;-71
2022/08/26 12:45:35;;;;;;;3.63;2.37;;;24.90;99.90;;;;;;5053719;28;20811;-71
2022/08/26 12:48:42;;;;;;;11.23;2.40;;;24.90;99.90;;;;;;5053916;28;20397;-71
2022/08/26 12:51:18;;;;;;;2.93;2.70;;;24.80;99.90;;;;;;5031491;28;20497;-72
2022/08/26 12:53:44;;;;;;;4.10;2.90;;;24.70;99.90;;;;;;5031541;28;20425;-72
2022/08/26 12:56:26;;;;;;;8.07;2.60;;;24.70;99.90;;;;;;5032196;28;20426;-71
2022/08/26 12:59:07;;;;;;;5.83;2.50;;;24.70;99.90;;;;;;5033939;28;20182;-72
2022/08/26 13:01:39;;;;;;;4.63;2.20;;;24.70;99.90;;;;;;5033751;28;20416;-71
2022/08/26 13:04:05;;;;;;;2.80;2.00;;;24.70;99.90;;;;;;5033629;28;20485;-71